Flight Track Log - Related Links

Times and Time Zones

All times are in EDT time to prevent confusion due to time zone crossing. See the N508QS flight status page for this flight to view local times or setup timezone preferences in your user account.

Time Position Orientation Groundspeed Altitude Reporting Facility
EDT Latitude Longitude Course Direction KTS MPH feet Rate Location/Type
Wed 08:48:57 AM 47.5197 -122.2933 153° Southeast 159 183 1,300  Level Seattle Center
Wed 08:49:27 AM 47.4922 -122.2722 153° Southeast 196 226 3,400 4,065 Climbing Seattle Center
Wed 08:49:28 AM 47.4925 -122.2731 296° West 192 221 3,400 4,426 Level Seattle Center
Wed 08:50:28 AM 47.4356 -122.2283 152° Southeast 226 260 7,900 4,150 Climbing Seattle Center
Wed 08:51:28 AM 47.3611 -122.1856 159° South 295 339 11,700 3,300 Climbing Seattle Center
Wed 08:52:28 AM 47.2628 -122.1592 170° South 362 417 14,500 2,975 Climbing Seattle Center
Wed 08:53:29 AM 47.1522 -122.1308 170° South 404 465 17,700 2,678 Climbing Seattle Center
Wed 08:54:29 AM 47.0361 -122.0992 169° South 437 503 19,900 2,350 Climbing Seattle Center
Wed 08:55:29 AM 46.9033 -122.0653 170° South 480 552 22,400 2,777 Climbing Seattle Center
Wed 08:56:30 AM 46.7617 -122.0272 170° South 511 588 25,500 2,876 Climbing Seattle Center
Wed 08:57:30 AM 46.6275 -121.9594 161° South 514 592 28,200 2,400 Climbing Seattle Center
Wed 08:58:30 AM 46.5422 -121.8069 129° Southeast 494 568 30,300 2,281 Climbing Seattle Center
Wed 08:59:31 AM 46.4753 -121.6308 119° Southeast 482 555 32,800 2,281 Climbing Seattle Center
Wed 09:00:31 AM 46.4172 -121.4839 120° Southeast 490 564 34,900 2,900 Climbing Seattle Center
Wed 09:01:31 AM 46.3378 -121.2867 120° Southeast 476 548 38,600 2,678 Climbing Seattle Center
Wed 09:02:32 AM 46.2733 -121.1289 121° Southeast 459 528 40,300 1,190 Climbing Seattle Center
Wed 09:03:32 AM 46.2083 -120.9656 120° Southeast 467 537 41,000 350 Climbing Seattle Center
Wed 09:04:32 AM 46.1400 -120.8011 121° Southeast 476 548 41,000  Level Seattle Center
Wed 09:05:33 AM 46.0731 -120.6383 121° Southeast 474 545 41,000  Level Seattle Center
Wed 09:06:33 AM 46.0064 -120.4761 121° Southeast 472 543 41,000  Level Seattle Center
Wed 09:07:33 AM 45.9383 -120.3150 121° Southeast 472 543 41,000  Level Seattle Center
Wed 09:08:34 AM 45.8689 -120.1503 121° Southeast 478 550 41,000  Level Seattle Center
Wed 09:09:34 AM 45.8008 -119.9883 121° Southeast 477 549 41,000  Level Seattle Center
Wed 09:10:35 AM 45.7300 -119.8233 122° Southeast 480 552 41,000  Level Seattle Center
Wed 09:11:35 AM 45.6586 -119.6558 121° Southeast 487 560 41,000  Level Seattle Center
Wed 09:12:36 AM 45.5878 -119.4917 122° Southeast 487 560 41,000  Level Seattle Center
Wed 09:13:36 AM 45.5178 -119.3297 122° Southeast 482 555 41,000  Level Seattle Center
Wed 09:14:36 AM 45.4467 -119.1658 122° Southeast 483 556 41,000  Level Seattle Center
Wed 09:15:37 AM 45.3742 -118.9994 122° Southeast 488 562 41,000  Level Seattle Center
Wed 09:16:37 AM 45.3022 -118.8367 122° Southeast 488 562 41,000  Level Seattle Center
Wed 09:17:38 AM 45.2300 -118.6744 122° Southeast 486 559 41,000  Level Seattle Center
Wed 09:18:38 AM 45.1572 -118.5117 122° Southeast 488 562 41,000  Level Seattle Center
Wed 09:19:39 AM 45.0847 -118.3508 123° Southeast 485 558 41,000  Level Seattle Center
Wed 09:20:39 AM 45.0153 -118.1944 122° Southeast 473 544 41,000  Level Seattle Center
Wed 09:21:39 AM 44.9508 -118.0533 123° Southeast 473 544 41,000  Level Seattle Center
Wed 09:22:40 AM 44.8722 -117.8589 120° Southeast 477 549 41,000 49 Level Seattle Center
Wed 09:23:41 AM 44.8161 -117.6911 115° Southeast 476 548 41,100  Climbing Seattle Center
Wed 09:24:41 AM 44.7575 -117.5233 116° Southeast 479 551 41,000 -50 Descending Seattle Center
Wed 09:25:42 AM 44.6986 -117.3550 116° Southeast 480 552 41,000  Level Seattle Center
Wed 09:26:42 AM 44.6406 -117.1875 116° Southeast 479 551 41,000  Level Seattle Center
Wed 09:27:54 AM 44.5706 -116.9867 116° Southeast 481 554 41,000 45 Level Salt Lake Center
Wed 09:28:55 AM 44.5111 -116.8169 116° Southeast 486 559 41,100  Climbing Salt Lake Center
Wed 09:29:56 AM 44.4525 -116.6514 116° Southeast 479 551 41,000 -49 Descending Salt Lake Center
Wed 09:30:57 AM 44.3942 -116.4881 117° Southeast 475 547 41,000  Level Salt Lake Center
Wed 09:31:58 AM 44.3333 -116.3211 117° Southeast 485 558 41,000  Level Salt Lake Center
Wed 09:32:59 AM 44.2756 -116.1556 116° Southeast 486 559 41,000  Level Salt Lake Center
Wed 09:34:00 AM 44.2050 -115.9619 117° Southeast 478 550 41,000  Level Salt Lake Center
Wed 09:35:01 AM 44.1453 -115.8017 117° Southeast 471 542 41,000  Level Salt Lake Center
Wed 09:36:02 AM 44.0864 -115.6386 117° Southeast 474 545 41,000  Level Salt Lake Center
Wed 09:37:03 AM 44.0261 -115.4753 117° Southeast 477 549 41,000  Level Salt Lake Center
Wed 09:38:05 AM 43.9650 -115.3119 117° Southeast 479 551 41,000  Level Salt Lake Center
Wed 09:39:06 AM 43.9044 -115.1492 117° Southeast 477 549 41,000  Level Salt Lake Center
Wed 09:40:07 AM 43.8433 -114.9875 118° Southeast 475 547 41,000  Level Salt Lake Center
Wed 09:41:08 AM 43.7839 -114.8258 117° Southeast 474 545 41,000  Level Salt Lake Center
Wed 09:42:09 AM 43.7208 -114.6647 118° Southeast 477 549 41,000 49 Level Salt Lake Center
Wed 09:43:10 AM 43.6594 -114.5039 118° Southeast 476 548 41,100 49 Climbing Salt Lake Center
Wed 09:44:11 AM 43.5858 -114.3125 118° Southeast 470 541 41,100  Level Salt Lake Center
Wed 09:45:12 AM 43.5239 -114.1514 118° Southeast 476 548 41,100  Level Salt Lake Center
Wed 09:46:14 AM 43.4597 -113.9881 118° Southeast 484 557 41,100 -49 Level Salt Lake Center
Wed 09:47:15 AM 43.3972 -113.8314 119° Southeast 486 559 41,000  Descending Salt Lake Center
Wed 09:48:16 AM 43.3261 -113.6483 118° Southeast 488 562 41,100 49 Climbing Salt Lake Center
Wed 09:49:17 AM 43.2636 -113.4933 119° Southeast 486 559 41,100 -49 Level Salt Lake Center
Wed 09:50:18 AM 43.2028 -113.3381 118° Southeast 483 556 41,000 -49 Descending Salt Lake Center
Wed 09:51:19 AM 43.1311 -113.1597 119° Southeast 481 554 41,000  Level Salt Lake Center
Wed 09:52:21 AM 43.0686 -113.0064 119° Southeast 483 556 41,000  Level Salt Lake Center
Wed 09:53:22 AM 42.9978 -112.8325 119° Southeast 472 543 41,000  Level Salt Lake Center
Wed 09:54:23 AM 42.9372 -112.6847 119° Southeast 468 539 41,000  Level Salt Lake Center
Wed 09:55:24 AM 42.8761 -112.5375 119° Southeast 466 536 41,000 49 Level Salt Lake Center
Wed 09:56:25 AM 42.8039 -112.3619 119° Southeast 474 545 41,100  Climbing Salt Lake Center
Wed 09:57:27 AM 42.7428 -112.2122 119° Southeast 475 547 41,000 -49 Descending Salt Lake Center
Wed 09:58:28 AM 42.6792 -112.0608 120° Southeast 471 542 41,000  Level Salt Lake Center
Wed 09:59:29 AM 42.6144 -111.9106 120° Southeast 463 533 41,000  Level Salt Lake Center
Wed 10:00:30 AM 42.5489 -111.7550 120° Southeast 473 544 41,000  Level Salt Lake Center
Wed 10:01:32 AM 42.4836 -111.6011 120° Southeast 472 543 41,000  Level Salt Lake Center
Wed 10:02:33 AM 42.4047 -111.4147 120° Southeast 474 545 41,000  Level Salt Lake Center
Wed 10:03:34 AM 42.3375 -111.2603 120° Southeast 477 549 41,000  Level Salt Lake Center
Wed 10:04:35 AM 42.2711 -111.1053 120° Southeast 478 550 41,000  Level Salt Lake Center
Wed 10:05:37 AM 42.2039 -110.9514 120° Southeast 478 550 41,000  Level Salt Lake Center
Wed 10:06:38 AM 42.1356 -110.7925 120° Southeast 472 543 41,000  Level Salt Lake Center
Wed 10:07:39 AM 42.0711 -110.6483 121° Southeast 471 542 41,000  Level Salt Lake Center
Wed 10:08:41 AM 41.9964 -110.4767 120° Southeast 475 547 41,000  Level Salt Lake Center
Wed 10:09:42 AM 41.9325 -110.3347 121° Southeast 466 536 41,000  Level Salt Lake Center
Wed 10:10:43 AM 41.8692 -110.1906 121° Southeast 469 540 41,000  Level Salt Lake Center
Wed 10:12:46 AM 41.7278 -109.8756 121° Southeast 474 545 41,000  Level Salt Lake Center
Wed 10:13:47 AM 41.6511 -109.7067 121° Southeast 476 548 41,000  Level Salt Lake Center
Wed 10:14:49 AM 41.5861 -109.5622 121° Southeast 474 545 41,000  Level Salt Lake Center
Wed 10:15:50 AM 41.5214 -109.4200 121° Southeast 472 543 41,000  Level Salt Lake Center
Wed 10:16:52 AM 41.4444 -109.2547 122° Southeast 473 544 41,000  Level Salt Lake Center
Wed 10:17:53 AM 41.3711 -109.0931 121° Southeast 478 550 41,000  Level Salt Lake Center
Wed 10:18:54 AM 41.3069 -108.9528 121° Southeast 471 542 41,000  Level Salt Lake Center
Wed 10:19:56 AM 41.2406 -108.8108 122° Southeast 473 544 41,000  Level Salt Lake Center
Wed 10:20:57 AM 41.1636 -108.6469 122° Southeast 471 542 41,000  Level Salt Lake Center
Wed 10:21:59 AM 41.0958 -108.5083 123° Southeast 469 540 41,000  Level Salt Lake Center
Wed 10:23:00 AM 40.9972 -108.3664 133° Southeast 468 539 41,000  Level Salt Lake Center
Wed 10:24:01 AM 40.9078 -108.2542 137° Southeast 467 537 41,000  Level Salt Lake Center
Wed 10:25:03 AM 40.8197 -108.1408 136° Southeast 463 533 41,000  Level Salt Lake Center
Wed 10:26:05 AM 40.7172 -108.0083 136° Southeast 463 533 41,000  Level Salt Lake Center
Wed 10:27:12 AM 40.6183 -107.8775 135° Southeast 459 528 41,000  Level Denver Center
Wed 10:28:14 AM 40.5158 -107.7478 136° Southeast 457 526 41,000  Level Denver Center
Wed 10:29:16 AM 40.4275 -107.6358 136° Southeast 460 529 41,000  Level Denver Center
Wed 10:30:18 AM 40.3400 -107.5258 136° Southeast 456 525 41,000  Level Denver Center
Wed 10:31:20 AM 40.2406 -107.3986 136° Southeast 448 516 41,000  Level Denver Center
Wed 10:32:23 AM 40.1544 -107.2900 136° Southeast 448 516 41,000  Level Denver Center
Wed 10:33:25 AM 40.0522 -107.1625 136° Southeast 453 521 41,000  Level Denver Center
Wed 10:34:27 AM 39.9653 -107.0547 136° Southeast 452 520 41,000  Level Denver Center
Wed 10:35:29 AM 39.8672 -106.9322 136° Southeast 450 518 41,000  Level Denver Center
Wed 10:36:31 AM 39.7694 -106.8125 137° Southeast 471 542 41,000  Level Denver Center
Wed 10:37:33 AM 39.6697 -106.6856 136° Southeast 465 535 41,000 -726 Level Denver Center
Wed 10:38:35 AM 39.5808 -106.5764 137° Southeast 459 528 39,500 -1,548 Descending Denver Center
Wed 10:39:37 AM 39.4897 -106.4664 137° Southeast 454 522 37,800 -1,694 Descending Denver Center
Wed 10:40:39 AM 39.3861 -106.3397 137° Southeast 466 536 36,000 -1,355 Descending Denver Center
Wed 10:41:41 AM 39.2778 -106.2094 137° Southeast 474 545 35,000 -484 Descending Denver Center
Wed 10:42:43 AM 39.1889 -106.1019 137° Southeast 447 514 35,000 -581 Level Denver Center
Wed 10:43:45 AM 39.0981 -105.9922 137° Southeast 448 516 33,800 -1,306 Descending Denver Center
Wed 10:44:47 AM 39.0069 -105.8831 137° Southeast 449 517 32,300 -1,452 Descending Denver Center
Wed 10:45:49 AM 38.9161 -105.7728 137° Southeast 450 518 30,800 -1,548 Descending Denver Center
Wed 10:46:51 AM 38.8239 -105.6650 138° Southeast 451 519 29,100 -1,984 Descending Denver Center
Wed 10:47:53 AM 38.7192 -105.5383 137° Southeast 435 501 26,700 -2,032 Descending Denver Center
Wed 10:48:55 AM 38.6383 -105.4428 137° Southeast 429 494 24,900 -1,984 Descending Denver Center
Wed 10:49:57 AM 38.5433 -105.3308 137° Southeast 419 482 22,600 -1,872 Descending Denver Center
Wed 10:51:00 AM 38.4636 -105.2381 138° Southeast 406 467 21,000 -1,584 Descending Denver Center
Wed 10:52:02 AM 38.3733 -105.1322 137° Southeast 397 457 19,300 -1,597 Descending Denver Center
Wed 10:53:04 AM 38.3322 -105.0142 114° Southeast 392 451 17,700 -1,645 Descending Denver Center
Wed 10:54:06 AM 38.3239 -104.8603 94° East 390 449 15,900 -1,548 Descending Denver Center
Wed 10:55:08 AM 38.3394 -104.7383 81° East 377 434 14,500 -1,477 Descending Denver Center
Wed 10:55:11 AM 38.3500 -104.7233 48° Northeast 386 444 14,300 -1,742 Descending Denver Center
Wed 10:56:10 AM 38.4439 -104.7075 North 352 405 12,700 -1,636 Descending Denver Center
Wed 10:57:12 AM 38.5308 -104.7039 North 331 381 11,000 -1,935 Descending Denver Center
Wed 10:58:14 AM 38.6189 -104.7031 360° North 298 343 8,700 -1,440 Descending Denver Center
Wed 10:59:17 AM 38.6753 -104.7144 351° North 245 282 8,000 -566 Descending Denver Center
Wed 11:00:00 AM 38.7061 -104.7164 357° North 142 163 7,700 -581 Descending Denver Center
Wed 11:00:19 AM 38.7206 -104.7147 North 169 194 7,400 -741 Descending Denver Center
Wed 11:01:21 AM 38.7558 -104.7158 359° North 146 168 6,700 -629 Descending Denver Center
Wed 11:02:23 AM 38.7914 -104.7156 360° North 137 158 6,100 -581 Descending Denver Center
Wed 11:04:00 AM 38.8058 -104.7008 204° Southwest  Level Estimated
Wed 11:11:00 AM 38.8000 -104.7000 204° Southwest  Level FlightAware Approximate
Wed 11:12:00 AM 38.8058 -104.7008 204° Southwest  Level Estimated
Wed 11:13:00 AM 38.8000 -104.7000 204° Southwest  Level FlightAware Approximate

Login

Don't have an account? Register now (free) for customized features, flight alerts, and more!